Time;durP1;ratioP1;P1;durP2;ratioP2;P2;SDS_P1;SDS_P2;PMS_P1;PMS_P2;Temp;Humidity;BMP_temperature;BMP_pressure;BME280_temperature;BME280_humidity;BME280_pressure;Samples;Min_cycle;Max_cycle;Signal;HPM_P1;HPM_P2
2022/07/30 00:00:36;;;;;;;5.77;4.90;;;20.30;58.40;;;;;;5007743;28;21748;-73
2022/07/30 00:03:05;;;;;;;5.95;5.45;;;20.30;58.60;;;;;;5002453;28;20456;-73
2022/07/30 00:05:33;;;;;;;5.82;5.20;;;20.20;59.30;;;;;;5011207;28;20449;-74
2022/07/30 00:08:00;;;;;;;6.20;5.60;;;20.20;59.50;;;;;;4996842;28;20548;-73
2022/07/30 00:10:27;;;;;;;5.97;5.38;;;20.10;59.80;;;;;;5001704;28;20440;-73
2022/07/30 00:12:54;;;;;;;8.07;5.75;;;20.10;60.00;;;;;;5008616;28;20465;-75
2022/07/30 00:15:21;;;;;;;5.90;5.22;;;20.00;60.40;;;;;;5015578;28;20446;-73
2022/07/30 00:17:48;;;;;;;5.55;5.05;;;20.00;60.70;;;;;;5004895;28;20563;-73
2022/07/30 00:20:14;;;;;;;5.40;4.90;;;20.00;60.80;;;;;;5000421;28;20462;-74
2022/07/30 00:22:42;;;;;;;5.82;5.20;;;20.00;60.90;;;;;;4996821;28;20438;-73
2022/07/30 00:25:09;;;;;;;5.40;5.00;;;20.00;61.20;;;;;;5003076;28;20799;-72
2022/07/30 00:27:36;;;;;;;6.68;5.30;;;19.90;61.40;;;;;;4995809;28;20516;-74
2022/07/30 00:30:04;;;;;;;6.20;5.60;;;19.90;62.60;;;;;;5004771;28;20507;-73
2022/07/30 00:32:31;;;;;;;6.00;4.80;;;19.90;61.80;;;;;;5004053;28;20434;-73
2022/07/30 00:34:57;;;;;;;6.30;4.60;;;19.80;62.00;;;;;;5001742;28;20912;-73
2022/07/30 00:37:24;;;;;;;7.13;5.20;;;19.80;61.90;;;;;;4993824;28;20450;-73
2022/07/30 00:39:52;;;;;;;6.55;5.00;;;19.80;62.00;;;;;;5015782;28;20438;-74
2022/07/30 00:42:24;;;;;;;5.13;4.60;;;19.80;62.30;;;;;;5001024;28;20445;-75
2022/07/30 00:44:51;;;;;;;6.68;4.80;;;19.70;62.20;;;;;;5025836;28;20531;-73
2022/07/30 00:47:18;;;;;;;5.95;4.75;;;19.70;62.10;;;;;;5009138;28;20991;-73
2022/07/30 00:49:45;;;;;;;5.35;4.70;;;19.70;62.20;;;;;;5002093;28;20436;-73
2022/07/30 00:52:12;;;;;;;5.90;5.40;;;19.70;63.00;;;;;;5001699;28;20436;-73
2022/07/30 00:54:39;;;;;;;7.13;4.90;;;19.60;63.00;;;;;;5009428;28;20435;-72
2022/07/30 00:57:07;;;;;;;6.07;5.47;;;19.50;63.50;;;;;;5004054;28;20442;-73
2022/07/30 00:59:34;;;;;;;5.60;5.10;;;19.50;64.10;;;;;;5020470;28;20430;-74
2022/07/30 01:02:02;;;;;;;6.00;5.40;;;19.30;64.70;;;;;;5001964;28;20430;-72
2022/07/30 01:04:29;;;;;;;5.78;5.22;;;19.20;65.10;;;;;;5000172;28;20444;-73
2022/07/30 01:06:56;;;;;;;7.07;5.95;;;19.20;65.90;;;;;;5001111;28;20434;-74
2022/07/30 01:09:23;;;;;;;6.30;5.70;;;19.10;66.50;;;;;;4991118;28;20434;-72
2022/07/30 01:11:50;;;;;;;6.20;5.60;;;19.00;66.80;;;;;;5007922;28;20876;-74
2022/07/30 01:14:18;;;;;;;7.00;6.30;;;19.00;67.30;;;;;;5004221;28;20438;-72
2022/07/30 01:16:45;;;;;;;6.68;6.10;;;18.90;67.60;;;;;;5004919;28;20420;-72
2022/07/30 01:22:12;;;;;;;6.90;6.30;;;18.80;68.40;;;;;;5004456;28;20549;-73
2022/07/30 01:24:43;;;;;;;6.97;6.28;;;18.70;68.60;;;;;;4997647;28;20508;-73
2022/07/30 01:27:13;;;;;;;8.20;6.50;;;18.70;69.10;;;;;;5000516;28;20438;-73
2022/07/30 01:29:42;;;;;;;7.75;6.55;;;18.60;69.20;;;;;;5005755;28;20438;-73
2022/07/30 01:32:11;;;;;;;6.80;6.10;;;18.60;69.40;;;;;;5011724;28;20729;-73
2022/07/30 01:34:39;;;;;;;7.50;6.50;;;18.60;69.80;;;;;;5010211;28;20536;-73
2022/07/30 01:37:09;;;;;;;6.90;6.23;;;18.50;69.90;;;;;;5002120;28;20530;-73
2022/07/30 01:39:37;;;;;;;8.60;6.93;;;18.50;70.30;;;;;;4997777;28;20450;-73
2022/07/30 01:42:06;;;;;;;7.30;6.60;;;18.40;70.60;;;;;;5007868;28;20482;-73
2022/07/30 01:44:35;;;;;;;8.63;6.55;;;18.30;70.70;;;;;;5017901;28;20517;-73
2022/07/30 01:47:03;;;;;;;7.35;6.72;;;18.30;70.90;;;;;;5010940;28;20421;-73
2022/07/30 01:49:31;;;;;;;7.77;6.70;;;18.20;70.80;;;;;;4995415;28;20449;-73
2022/07/30 01:51:59;;;;;;;8.27;7.05;;;18.20;70.80;;;;;;4998568;28;20423;-72
2022/07/30 01:54:29;;;;;;;9.25;7.00;;;18.20;70.70;;;;;;5006121;28;20910;-73
2022/07/30 01:56:58;;;;;;;7.30;6.70;;;18.10;70.70;;;;;;5005189;28;20507;-72
2022/07/30 01:59:28;;;;;;;7.78;6.97;;;18.10;70.80;;;;;;5000107;28;20435;-73
2022/07/30 02:01:56;;;;;;;7.88;7.18;;;18.10;70.80;;;;;;5025366;23;20531;-72
2022/07/30 02:04:23;;;;;;;8.10;7.40;;;18.00;70.90;;;;;;5005451;28;20439;-72
2022/07/30 02:07:03;;;;;;;7.80;7.20;;;17.90;71.00;;;;;;5015958;28;20439;-75
2022/07/30 02:09:35;;;;;;;8.10;7.30;;;17.90;71.20;;;;;;5005865;28;20439;-72
2022/07/30 02:14:52;;;;;;;8.30;7.60;;;17.90;71.20;;;;;;5023568;28;20457;-74
2022/07/30 02:17:23;;;;;;;8.10;7.40;;;17.80;71.30;;;;;;5001988;28;20438;-74
2022/07/30 02:19:56;;;;;;;7.88;7.22;;;17.80;72.20;;;;;;5003931;28;20434;-73
2022/07/30 02:22:25;;;;;;;8.25;7.35;;;17.80;71.10;;;;;;5013893;28;20462;-73
2022/07/30 02:24:55;;;;;;;8.70;7.80;;;17.80;71.20;;;;;;5005784;28;20438;-73
2022/07/30 02:27:25;;;;;;;7.93;7.22;;;17.70;71.10;;;;;;5013567;28;20438;-73
2022/07/30 02:29:54;;;;;;;8.52;7.60;;;17.80;71.00;;;;;;5002515;28;20448;-73
2022/07/30 02:32:24;;;;;;;9.50;7.93;;;17.80;70.80;;;;;;5005250;28;20901;-72
2022/07/30 02:34:56;;;;;;;8.32;7.45;;;17.80;70.80;;;;;;5015041;28;20432;-75
2022/07/30 02:37:25;;;;;;;8.50;7.07;;;17.80;71.40;;;;;;5000815;28;20472;-73
2022/07/30 02:39:54;;;;;;;8.02;7.32;;;17.80;71.60;;;;;;5010722;28;20442;-73
2022/07/30 02:42:24;;;;;;;8.32;7.53;;;17.80;71.20;;;;;;5013030;28;20452;-75
2022/07/30 02:44:53;;;;;;;8.70;7.90;;;17.80;71.10;;;;;;5013371;28;20449;-74
2022/07/30 02:47:24;;;;;;;8.50;7.80;;;17.80;70.50;;;;;;5011488;28;20445;-75
2022/07/30 02:49:52;;;;;;;7.75;7.15;;;17.80;70.00;;;;;;5000602;28;20438;-75
2022/07/30 02:52:20;;;;;;;9.02;8.23;;;17.80;70.60;;;;;;5005697;28;21012;-73
2022/07/30 02:54:50;;;;;;;8.75;7.85;;;17.80;69.80;;;;;;5002722;28;20445;-73
2022/07/30 02:57:19;;;;;;;9.23;8.43;;;17.70;70.10;;;;;;5005595;28;20424;-73
2022/07/30 02:59:48;;;;;;;11.57;9.77;;;17.70;70.10;;;;;;5008946;28;20434;-75
2022/07/30 03:02:17;;;;;;;9.80;8.80;;;17.60;70.40;;;;;;4998789;28;20431;-73
2022/07/30 03:04:46;;;;;;;10.40;9.30;;;17.50;70.90;;;;;;5004960;28;20476;-73
2022/07/30 03:07:14;;;;;;;9.90;9.00;;;17.50;70.90;;;;;;5013658;28;20469;-73
2022/07/30 03:09:43;;;;;;;9.73;8.88;;;17.40;71.10;;;;;;5027323;28;20462;-72
2022/07/30 03:12:12;;;;;;;11.05;9.27;;;17.40;71.40;;;;;;5024752;28;20427;-73
2022/07/30 03:14:39;;;;;;;9.40;8.50;;;17.40;71.80;;;;;;5026031;28;20430;-73
2022/07/30 03:17:08;;;;;;;8.87;8.17;;;17.40;71.70;;;;;;5042216;28;20408;-72
2022/07/30 03:19:38;;;;;;;9.80;9.00;;;17.40;72.50;;;;;;5028728;28;20415;-74
2022/07/30 03:22:08;;;;;;;10.27;9.30;;;17.40;71.80;;;;;;5022629;28;20412;-74
2022/07/30 03:24:36;;;;;;;9.50;8.60;;;17.40;71.80;;;;;;5003898;28;20440;-73
2022/07/30 03:27:04;;;;;;;9.00;8.23;;;17.30;72.50;;;;;;4999581;28;20922;-73
2022/07/30 03:29:32;;;;;;;10.32;9.40;;;17.40;72.00;;;;;;5028256;28;20419;-72
2022/07/30 03:32:00;;;;;;;9.50;8.50;;;17.40;71.70;;;;;;5000044;28;20441;-73
2022/07/30 03:34:27;;;;;;;11.00;10.00;;;17.40;71.70;;;;;;5004369;28;20436;-73
2022/07/30 03:36:54;;;;;;;10.98;10.07;;;17.40;71.50;;;;;;5007344;28;20439;-74
2022/07/30 03:39:23;;;;;;;11.32;10.32;;;17.40;71.50;;;;;;5000156;28;20802;-73
2022/07/30 03:41:52;;;;;;;12.20;10.18;;;17.30;72.20;;;;;;5004708;28;20440;-73
2022/07/30 03:44:19;;;;;;;11.60;10.50;;;17.20;72.60;;;;;;5007850;28;20445;-74
2022/07/30 03:46:49;;;;;;;11.10;10.10;;;17.20;73.90;;;;;;5004640;28;20462;-74
2022/07/30 03:49:17;;;;;;;11.45;10.45;;;17.10;73.00;;;;;;4999267;28;20434;-74
2022/07/30 03:51:45;;;;;;;11.48;10.38;;;17.10;73.40;;;;;;4992493;28;20528;-74
2022/07/30 03:54:12;;;;;;;11.70;10.50;;;17.00;74.00;;;;;;4994092;28;20516;-74
2022/07/30 03:56:40;;;;;;;11.32;10.32;;;17.00;73.90;;;;;;4996536;28;20445;-74
2022/07/30 03:59:07;;;;;;;10.10;9.20;;;17.00;74.00;;;;;;5005126;28;20810;-74
2022/07/30 04:01:34;;;;;;;10.63;9.83;;;16.90;74.40;;;;;;4998976;28;20523;-74
2022/07/30 04:04:05;;;;;;;11.25;10.27;;;16.90;74.70;;;;;;5002391;28;20443;-74
2022/07/30 04:06:35;;;;;;;10.65;9.85;;;17.00;74.40;;;;;;5009506;28;20431;-73
2022/07/30 04:09:02;;;;;;;10.60;9.70;;;17.00;74.90;;;;;;5006630;28;20482;-72
2022/07/30 04:11:28;;;;;;;10.50;9.60;;;16.90;74.50;;;;;;5000170;28;20433;-73
2022/07/30 04:13:57;;;;;;;10.50;9.60;;;17.00;75.00;;;;;;4997292;28;20483;-75
2022/07/30 04:16:29;;;;;;;11.90;10.90;;;17.00;74.40;;;;;;5000222;28;21090;-73
2022/07/30 04:19:00;;;;;;;11.77;10.60;;;16.90;74.70;;;;;;5005379;28;20439;-74
2022/07/30 04:21:29;;;;;;;11.32;10.32;;;16.80;75.30;;;;;;4998909;28;20434;-74
2022/07/30 04:24:00;;;;;;;11.70;10.50;;;16.80;75.40;;;;;;5006862;28;20923;-74
2022/07/30 04:26:28;;;;;;;11.43;9.48;;;16.80;75.90;;;;;;5010140;28;20430;-73
2022/07/30 04:28:57;;;;;;;11.27;10.17;;;16.70;75.70;;;;;;5004706;28;20526;-72
2022/07/30 04:31:23;;;;;;;11.32;10.38;;;16.70;75.80;;;;;;4997858;28;20839;-73
2022/07/30 04:33:50;;;;;;;11.30;10.20;;;16.70;75.90;;;;;;5007635;28;20433;-72
2022/07/30 04:36:17;;;;;;;11.00;10.00;;;16.70;76.20;;;;;;5012098;28;20436;-73
2022/07/30 04:38:44;;;;;;;12.40;11.20;;;16.70;76.30;;;;;;5015618;28;20501;-73
2022/07/30 04:41:11;;;;;;;12.90;11.70;;;16.70;76.60;;;;;;4998596;28;20433;-72
2022/07/30 04:43:37;;;;;;;12.40;11.20;;;16.70;76.70;;;;;;5000803;28;20530;-72
2022/07/30 04:46:06;;;;;;;13.38;11.80;;;16.60;77.20;;;;;;5012458;28;20450;-73
2022/07/30 04:48:32;;;;;;;11.82;10.73;;;16.50;77.40;;;;;;5001902;28;20438;-73
2022/07/30 04:51:03;;;;;;;12.13;11.02;;;16.60;77.50;;;;;;4997164;28;20443;-73
2022/07/30 04:53:30;;;;;;;10.80;10.00;;;16.50;77.60;;;;;;5005928;28;20958;-73
2022/07/30 04:56:00;;;;;;;11.50;10.50;;;16.60;77.90;;;;;;5013512;28;20435;-73
2022/07/30 04:58:29;;;;;;;13.65;11.75;;;16.60;77.70;;;;;;5011332;28;20944;-73
2022/07/30 05:00:58;;;;;;;12.52;11.32;;;16.60;77.90;;;;;;4998607;28;20432;-73
2022/07/30 05:03:27;;;;;;;11.52;10.63;;;16.60;78.10;;;;;;4996726;28;20452;-73
2022/07/30 05:05:55;;;;;;;12.63;11.60;;;16.60;79.00;;;;;;5013105;28;20443;-74
2022/07/30 05:08:22;;;;;;;13.20;12.15;;;16.70;78.80;;;;;;4999988;28;20446;-74
2022/07/30 05:10:49;;;;;;;13.60;12.40;;;16.70;79.10;;;;;;5004527;28;20818;-73
2022/07/30 05:13:16;;;;;;;13.65;12.35;;;16.70;79.10;;;;;;5002402;28;20438;-76
2022/07/30 05:15:43;;;;;;;13.05;11.65;;;16.70;79.50;;;;;;5001863;28;21089;-73
2022/07/30 05:18:10;;;;;;;13.00;11.90;;;16.70;79.60;;;;;;5006632;28;20480;-74
2022/07/30 05:20:39;;;;;;;14.40;13.20;;;16.70;80.70;;;;;;4998512;28;20824;-69
2022/07/30 05:23:06;;;;;;;13.52;12.23;;;16.80;79.80;;;;;;4998458;28;20514;-69
2022/07/30 05:25:33;;;;;;;13.98;12.77;;;16.80;80.00;;;;;;5008082;28;20444;-69
2022/07/30 05:27:59;;;;;;;14.18;12.85;;;16.80;81.10;;;;;;5016377;28;20927;-68
2022/07/30 05:30:26;;;;;;;13.32;12.18;;;16.90;80.20;;;;;;5012816;28;20441;-69
2022/07/30 05:32:53;;;;;;;14.88;13.38;;;16.90;80.30;;;;;;4995279;28;20544;-69
2022/07/30 05:35:20;;;;;;;15.10;13.73;;;16.90;80.60;;;;;;5001187;28;20439;-69
2022/07/30 05:37:48;;;;;;;15.93;13.43;;;16.90;80.90;;;;;;5008125;28;20985;-69
2022/07/30 05:40:15;;;;;;;14.63;13.30;;;16.80;81.10;;;;;;4996508;28;20432;-69
2022/07/30 05:42:42;;;;;;;13.70;12.50;;;16.90;81.30;;;;;;5004293;28;20430;-70
2022/07/30 05:45:09;;;;;;;15.25;13.88;;;16.90;81.00;;;;;;4996666;28;20467;-69
2022/07/30 05:47:36;;;;;;;13.57;12.17;;;17.00;81.30;;;;;;5000917;28;20432;-70
2022/07/30 05:50:03;;;;;;;15.07;13.47;;;17.00;81.20;;;;;;4992338;28;20952;-70
2022/07/30 05:52:30;;;;;;;14.90;13.70;;;17.10;81.10;;;;;;4999833;28;21122;-70
2022/07/30 05:54:58;;;;;;;15.00;13.60;;;17.20;81.00;;;;;;5004963;28;20434;-70
2022/07/30 05:57:25;;;;;;;15.02;13.50;;;17.20;81.00;;;;;;5008339;28;20427;-69
2022/07/30 05:59:52;;;;;;;16.55;14.95;;;17.20;80.90;;;;;;4998937;28;20436;-69
2022/07/30 06:02:18;;;;;;;16.00;14.40;;;17.20;81.00;;;;;;5011789;28;20439;-69
2022/07/30 06:04:45;;;;;;;15.80;14.30;;;17.30;81.20;;;;;;5000739;28;20440;-69
2022/07/30 06:07:12;;;;;;;16.80;15.20;;;17.30;81.10;;;;;;4995406;28;20432;-69
2022/07/30 06:09:39;;;;;;;16.95;15.32;;;17.40;81.00;;;;;;4999874;28;20924;-69
2022/07/30 06:12:07;;;;;;;17.00;15.48;;;17.40;81.00;;;;;;4997000;28;20440;-68
2022/07/30 06:14:34;;;;;;;16.60;14.80;;;17.50;81.10;;;;;;4993619;28;20943;-70
2022/07/30 06:17:01;;;;;;;17.45;15.98;;;17.60;80.80;;;;;;4997266;28;20800;-70
2022/07/30 06:19:27;;;;;;;18.20;16.20;;;17.70;80.40;;;;;;5003927;28;20988;-71
2022/07/30 06:21:54;;;;;;;17.23;15.60;;;17.80;79.80;;;;;;5002778;28;20436;-72
2022/07/30 06:24:21;;;;;;;19.75;17.85;;;18.00;79.50;;;;;;5002064;28;20436;-71
2022/07/30 06:26:48;;;;;;;21.83;19.63;;;18.10;78.80;;;;;;4999481;28;20458;-71
2022/07/30 06:29:16;;;;;;;23.58;21.33;;;18.20;78.20;;;;;;5002508;28;20444;-71
2022/07/30 06:31:43;;;;;;;29.30;26.50;;;18.20;78.00;;;;;;5003807;28;20424;-70
2022/07/30 06:34:09;;;;;;;30.87;28.07;;;18.20;78.00;;;;;;5008337;28;20861;-72
2022/07/30 06:36:36;;;;;;;36.70;33.30;;;18.10;78.90;;;;;;5004402;28;20792;-72
2022/07/30 06:39:03;;;;;;;43.47;39.38;;;18.00;79.40;;;;;;5004839;28;20455;-69
2022/07/30 06:41:30;;;;;;;44.20;39.90;;;17.80;80.30;;;;;;5011418;28;20452;-75
2022/07/30 06:43:57;;;;;;;43.88;39.63;;;17.70;80.80;;;;;;5004215;28;20435;-73
2022/07/30 06:46:25;;;;;;;48.45;43.45;;;17.60;81.30;;;;;;5003839;28;20439;-73
2022/07/30 06:48:51;;;;;;;46.58;41.97;;;17.50;81.50;;;;;;5008473;28;21027;-69
2022/07/30 06:51:18;;;;;;;42.92;38.83;;;17.40;82.00;;;;;;5001230;28;20444;-70
2022/07/30 06:53:45;;;;;;;42.53;38.42;;;17.50;82.30;;;;;;5003971;28;20442;-69
2022/07/30 06:56:12;;;;;;;42.30;38.30;;;17.60;81.50;;;;;;5008570;28;20900;-69
2022/07/30 06:58:39;;;;;;;43.90;39.70;;;17.60;81.50;;;;;;5007701;28;20447;-70
2022/07/30 07:01:06;;;;;;;37.35;33.95;;;17.70;81.90;;;;;;5013436;28;20440;-70
2022/07/30 07:03:34;;;;;;;39.50;36.00;;;17.90;79.70;;;;;;4994891;28;20438;-69
2022/07/30 07:06:02;;;;;;;36.75;33.35;;;18.20;78.80;;;;;;5007911;28;20424;-70
2022/07/30 07:08:30;;;;;;;37.17;33.80;;;18.40;77.50;;;;;;5000979;28;20448;-70
2022/07/30 07:10:57;;;;;;;33.37;30.50;;;18.70;75.70;;;;;;5013104;28;20425;-71
2022/07/30 07:13:24;;;;;;;33.53;30.63;;;18.90;74.40;;;;;;5005843;28;20432;-70
2022/07/30 07:15:50;;;;;;;33.95;30.95;;;19.30;73.40;;;;;;4997930;28;20438;-70
2022/07/30 07:18:17;;;;;;;35.33;32.08;;;19.50;71.90;;;;;;5002488;28;20440;-71
2022/07/30 07:20:46;;;;;;;35.22;31.98;;;19.80;70.40;;;;;;5008011;28;20428;-70
2022/07/30 07:23:12;;;;;;;35.03;32.13;;;19.80;69.90;;;;;;5002665;28;20444;-70
2022/07/30 07:25:40;;;;;;;37.07;33.97;;;19.80;70.10;;;;;;5006758;28;20440;-71
2022/07/30 07:28:07;;;;;;;33.72;30.73;;;19.50;70.80;;;;;;5005125;28;20431;-70
2022/07/30 07:30:34;;;;;;;33.90;31.13;;;19.40;71.70;;;;;;5011490;28;20430;-70
2022/07/30 07:33:01;;;;;;;31.98;29.30;;;19.30;71.70;;;;;;5013424;28;20438;-71
2022/07/30 07:35:27;;;;;;;30.77;28.08;;;19.30;72.10;;;;;;5012054;28;20513;-72
2022/07/30 07:37:55;;;;;;;28.38;25.85;;;19.50;72.30;;;;;;5015734;28;20415;-70
2022/07/30 07:40:22;;;;;;;28.23;25.57;;;19.70;70.80;;;;;;5002704;28;20466;-69
2022/07/30 07:42:49;;;;;;;23.90;22.00;;;19.50;70.50;;;;;;5017539;28;20514;-73
2022/07/30 07:45:16;;;;;;;22.15;20.30;;;19.40;71.40;;;;;;5009610;28;20449;-67
2022/07/30 07:47:44;;;;;;;21.23;19.48;;;19.80;69.50;;;;;;5008935;28;20445;-67
2022/07/30 07:50:11;;;;;;;20.50;18.55;;;20.10;68.60;;;;;;5005598;28;20416;-67
2022/07/30 07:52:38;;;;;;;19.58;17.77;;;20.30;67.80;;;;;;5009328;28;20476;-69
2022/07/30 07:55:07;;;;;;;18.65;16.98;;;20.50;67.60;;;;;;5029757;28;20431;-66
2022/07/30 07:57:38;;;;;;;16.05;14.25;;;20.80;66.50;;;;;;5012448;28;20440;-67
2022/07/30 08:00:07;;;;;;;18.23;16.42;;;21.10;64.30;;;;;;5018457;28;20440;-66
2022/07/30 08:02:34;;;;;;;18.67;16.88;;;21.30;63.90;;;;;;4999624;28;20440;-67
2022/07/30 08:05:00;;;;;;;14.88;13.38;;;21.30;64.40;;;;;;5022624;22;20429;-64
2022/07/30 08:07:27;;;;;;;15.00;13.50;;;21.40;64.50;;;;;;4997418;28;20528;-64
2022/07/30 08:09:54;;;;;;;14.37;12.13;;;21.50;63.30;;;;;;4997539;28;20832;-63
2022/07/30 08:12:22;;;;;;;18.77;17.27;;;21.50;63.40;;;;;;4998823;28;21196;-63
2022/07/30 08:14:49;;;;;;;19.48;17.77;;;21.60;62.90;;;;;;4973650;28;20440;-63
2022/07/30 08:17:16;;;;;;;19.25;17.48;;;21.50;62.30;;;;;;4977674;28;20439;-63
2022/07/30 08:19:43;;;;;;;21.17;19.30;;;21.40;62.70;;;;;;4974597;28;20440;-70
2022/07/30 08:22:10;;;;;;;20.07;18.27;;;21.20;63.00;;;;;;4983001;28;20538;-70
2022/07/30 08:24:36;;;;;;;18.17;16.58;;;21.00;63.20;;;;;;4983458;28;20924;-68
2022/07/30 08:27:04;;;;;;;16.35;14.82;;;20.80;63.60;;;;;;4982147;28;20769;-70
2022/07/30 08:29:32;;;;;;;18.80;17.00;;;21.00;64.30;;;;;;4980813;28;20430;-69
2022/07/30 08:31:59;;;;;;;14.75;13.55;;;21.20;63.10;;;;;;4987568;28;20436;-68
2022/07/30 08:34:26;;;;;;;17.75;16.00;;;21.50;63.30;;;;;;4972469;28;20468;-71
2022/07/30 08:36:52;;;;;;;16.63;15.20;;;21.80;61.00;;;;;;4979408;28;22052;-71
2022/07/30 08:39:19;;;;;;;16.60;14.13;;;21.90;61.00;;;;;;4976748;28;20442;-71
2022/07/30 08:41:46;;;;;;;16.23;14.82;;;22.00;60.00;;;;;;4985946;28;20442;-70
2022/07/30 08:44:17;;;;;;;16.48;14.88;;;22.00;59.70;;;;;;4974474;28;20440;-71
2022/07/30 08:46:47;;;;;;;11.50;10.50;;;22.10;59.70;;;;;;4974782;28;20438;-71
2022/07/30 08:49:15;;;;;;;14.93;13.52;;;22.30;60.10;;;;;;4976788;28;20448;-72
2022/07/30 08:51:43;;;;;;;14.98;13.68;;;22.60;59.90;;;;;;4976149;28;20925;-72
2022/07/30 08:54:10;;;;;;;11.32;10.32;;;22.70;57.90;;;;;;4983604;28;20449;-62
2022/07/30 08:56:37;;;;;;;11.02;10.02;;;22.90;58.00;;;;;;4982131;28;21158;-65
2022/07/30 08:59:04;;;;;;;11.07;9.98;;;23.10;56.80;;;;;;4986126;28;20524;-66
2022/07/30 09:01:31;;;;;;;11.80;10.70;;;23.30;56.80;;;;;;4980788;28;20517;-66
2022/07/30 09:04:00;;;;;;;13.07;11.88;;;23.30;55.60;;;;;;4976280;28;20444;-66
2022/07/30 09:06:27;;;;;;;12.73;11.63;;;23.00;56.50;;;;;;4978191;28;20434;-66
2022/07/30 09:08:54;;;;;;;11.40;10.40;;;22.80;57.30;;;;;;4988357;28;20508;-66
2022/07/30 09:11:21;;;;;;;11.20;10.10;;;22.80;57.40;;;;;;4983112;28;20881;-66
2022/07/30 09:13:49;;;;;;;11.50;10.52;;;22.90;57.00;;;;;;4986624;28;20448;-66
2022/07/30 09:16:20;;;;;;;10.00;9.20;;;23.30;57.00;;;;;;4976164;28;20446;-67
2022/07/30 09:18:48;;;;;;;12.88;11.68;;;23.60;55.00;;;;;;4981140;28;20448;-66
2022/07/30 09:21:17;;;;;;;13.30;12.20;;;23.70;53.50;;;;;;4971025;28;20438;-67
2022/07/30 09:23:58;;;;;;;13.98;12.90;;;23.30;54.80;;;;;;4970249;28;20547;-66
2022/07/30 09:26:26;;;;;;;14.80;13.60;;;23.10;56.50;;;;;;4974134;28;20446;-66
2022/07/30 09:28:53;;;;;;;12.00;10.90;;;23.10;55.90;;;;;;4980008;28;20525;-66
2022/07/30 09:31:23;;;;;;;12.57;11.50;;;23.10;56.80;;;;;;4969097;28;20972;-65
2022/07/30 09:33:50;;;;;;;12.33;11.23;;;23.40;56.80;;;;;;4967511;28;20440;-66
2022/07/30 09:36:18;;;;;;;10.90;9.80;;;23.40;55.40;;;;;;4980298;28;20436;-67
2022/07/30 09:38:47;;;;;;;12.60;11.55;;;23.40;55.20;;;;;;4975142;28;20458;-66
2022/07/30 09:41:16;;;;;;;11.35;10.45;;;23.30;55.40;;;;;;4975574;28;20434;-67
2022/07/30 09:43:44;;;;;;;11.60;10.60;;;23.30;55.20;;;;;;4977437;28;20437;-66
2022/07/30 09:46:12;;;;;;;11.15;10.15;;;23.40;54.60;;;;;;4981232;28;20521;-65
2022/07/30 09:48:39;;;;;;;11.20;10.00;;;23.80;53.30;;;;;;4975205;28;20779;-66
2022/07/30 09:51:06;;;;;;;11.70;10.60;;;24.00;53.00;;;;;;4975101;28;20927;-66
2022/07/30 09:53:35;;;;;;;11.10;10.00;;;24.10;52.10;;;;;;4979358;28;20466;-65
2022/07/30 09:56:22;;;;;;;10.93;10.02;;;23.80;52.40;;;;;;4981359;28;20465;-65
2022/07/30 09:58:49;;;;;;;10.55;9.75;;;23.70;52.40;;;;;;4985785;28;20473;-64
2022/07/30 10:01:19;;;;;;;10.18;9.38;;;23.80;52.30;;;;;;4982820;28;20440;-65
2022/07/30 10:03:46;;;;;;;11.98;10.98;;;24.20;50.70;;;;;;4987204;28;20489;-65
2022/07/30 10:06:13;;;;;;;9.67;8.97;;;24.60;49.50;;;;;;4978018;28;20470;-66
2022/07/30 10:08:44;;;;;;;9.88;8.98;;;24.80;49.30;;;;;;4978065;28;20446;-65
2022/07/30 10:11:13;;;;;;;12.05;10.93;;;24.90;49.00;;;;;;4984727;28;20514;-67
2022/07/30 10:13:40;;;;;;;10.77;9.88;;;25.00;47.40;;;;;;4972480;28;21028;-64
2022/07/30 10:16:07;;;;;;;9.50;8.70;;;24.70;48.60;;;;;;4978175;28;20541;-67
2022/07/30 10:18:35;;;;;;;8.05;7.32;;;24.80;48.30;;;;;;4975822;28;20434;-66
2022/07/30 10:21:02;;;;;;;9.10;8.30;;;24.90;47.80;;;;;;4981512;28;20438;-65
2022/07/30 10:23:31;;;;;;;7.60;6.90;;;25.20;45.80;;;;;;4985398;28;20532;-64
2022/07/30 10:26:00;;;;;;;8.20;7.40;;;25.40;46.20;;;;;;4978346;28;20460;-65
2022/07/30 10:28:28;;;;;;;7.78;6.97;;;25.60;44.20;;;;;;4969860;28;20449;-64
2022/07/30 10:30:56;;;;;;;6.85;6.15;;;25.90;44.20;;;;;;4979334;28;20441;-63
2022/07/30 10:33:25;;;;;;;9.90;6.15;;;26.00;42.80;;;;;;4986060;28;20521;-65
2022/07/30 10:35:52;;;;;;;7.68;6.90;;;26.10;42.00;;;;;;4978832;28;20437;-65
2022/07/30 10:38:21;;;;;;;6.77;6.10;;;26.30;42.20;;;;;;4975325;28;20517;-65
2022/07/30 10:40:52;;;;;;;6.85;5.68;;;26.30;41.90;;;;;;4967042;28;20428;-67
2022/07/30 10:43:49;;;;;;;5.18;4.68;;;26.40;40.80;;;;;;4966359;28;20997;-69
2022/07/30 10:46:26;;;;;;;5.15;4.65;;;26.40;39.50;;;;;;4971720;28;20507;-69
2022/07/30 10:48:54;;;;;;;4.93;4.63;;;26.40;38.10;;;;;;4961086;28;20452;-69
2022/07/30 10:51:22;;;;;;;6.10;5.50;;;26.20;40.20;;;;;;4966579;28;20909;-70
2022/07/30 10:53:49;;;;;;;5.15;4.75;;;26.30;39.80;;;;;;4964148;28;20443;-70
2022/07/30 10:56:18;;;;;;;5.13;4.40;;;26.30;39.60;;;;;;4962836;28;20929;-71
2022/07/30 10:59:01;;;;;;;4.32;3.92;;;26.60;40.00;;;;;;4961057;28;21186;-71
2022/07/30 11:02:08;;;;;;;4.78;3.60;;;27.00;37.60;;;;;;4970213;28;20510;-70
2022/07/30 11:04:35;;;;;;;4.72;4.03;;;27.30;36.10;;;;;;4962118;28;20557;-70
2022/07/30 11:07:28;;;;;;;4.73;3.90;;;27.30;37.30;;;;;;4966450;28;20529;-70
2022/07/30 11:09:56;;;;;;;4.68;3.60;;;27.30;35.80;;;;;;4971810;28;20823;-71
2022/07/30 11:12:52;;;;;;;4.25;3.55;;;27.50;34.90;;;;;;4979379;28;20442;-70
2022/07/30 11:15:21;;;;;;;4.20;3.80;;;27.80;37.50;;;;;;4976896;28;20430;-69
2022/07/30 11:18:15;;;;;;;3.90;3.30;;;27.90;35.10;;;;;;4978400;28;20468;-70
2022/07/30 11:20:42;;;;;;;4.32;3.67;;;28.20;35.90;;;;;;4953786;28;20445;-70
2022/07/30 11:23:36;;;;;;;4.95;3.53;;;28.10;33.20;;;;;;4985217;28;20549;-70
2022/07/30 11:26:03;;;;;;;4.13;3.73;;;28.10;34.60;;;;;;4978494;28;20526;-68
2022/07/30 11:28:39;;;;;;;4.20;3.80;;;28.00;35.60;;;;;;4983847;28;20521;-69
2022/07/30 11:31:32;;;;;;;6.00;3.40;;;28.00;36.00;;;;;;4973102;28;20490;-71
2022/07/30 11:34:26;;;;;;;4.28;3.88;;;28.10;36.80;;;;;;4979257;28;21146;-69
2022/07/30 11:37:07;;;;;;;4.05;3.00;;;28.20;36.90;;;;;;4982412;28;20468;-70
2022/07/30 11:40:12;;;;;;;5.30;3.10;;;28.20;35.20;;;;;;4982689;28;20427;-70
2022/07/30 11:42:42;;;;;;;4.28;3.05;;;28.40;34.20;;;;;;4978366;28;20437;-68
2022/07/30 11:45:25;;;;;;;4.65;3.20;;;28.50;36.20;;;;;;4984894;28;20438;-70
2022/07/30 11:47:56;;;;;;;4.13;3.20;;;28.50;36.50;;;;;;4981746;28;20469;-70
2022/07/30 11:50:25;;;;;;;4.40;3.40;;;28.50;36.40;;;;;;4983008;28;20436;-69
2022/07/30 11:52:53;;;;;;;3.80;3.35;;;28.60;36.10;;;;;;4977400;28;20438;-70
2022/07/30 11:55:24;;;;;;;4.10;3.70;;;28.70;33.30;;;;;;4974766;28;20462;-69
2022/07/30 11:57:51;;;;;;;3.70;3.40;;;28.50;33.70;;;;;;4982510;28;20436;-69
2022/07/30 12:00:18;;;;;;;3.70;3.30;;;28.20;32.90;;;;;;4974390;28;20822;-67
2022/07/30 12:02:47;;;;;;;3.78;3.33;;;28.30;33.80;;;;;;4987080;28;20449;-68
2022/07/30 12:05:15;;;;;;;4.63;2.85;;;28.40;32.60;;;;;;4984392;28;20444;-70
2022/07/30 12:07:43;;;;;;;4.50;2.70;;;28.40;34.40;;;;;;4972935;28;20463;-70
2022/07/30 12:10:15;;;;;;;4.70;2.88;;;28.40;35.20;;;;;;4982332;28;20506;-70
2022/07/30 12:12:41;;;;;;;4.63;2.80;;;28.50;32.40;;;;;;4975102;28;20432;-68
2022/07/30 12:15:09;;;;;;;4.18;3.60;;;28.60;32.60;;;;;;4985702;28;20438;-70
2022/07/30 12:17:43;;;;;;;3.33;2.70;;;28.60;31.80;;;;;;4982146;28;20509;-69
2022/07/30 12:20:19;;;;;;;4.38;2.88;;;28.50;32.10;;;;;;4973121;28;20434;-70
2022/07/30 12:22:47;;;;;;;3.60;2.83;;;28.60;32.30;;;;;;4980232;28;20422;-69
2022/07/30 12:25:14;;;;;;;3.10;2.40;;;28.70;33.40;;;;;;4977567;28;20435;-69
2022/07/30 12:27:44;;;;;;;3.50;2.30;;;28.90;32.50;;;;;;4982410;28;20446;-69
2022/07/30 12:30:12;;;;;;;3.25;2.70;;;29.00;30.10;;;;;;4978520;28;20456;-68
2022/07/30 12:32:39;;;;;;;3.90;3.20;;;28.80;30.60;;;;;;4974874;28;20937;-69
2022/07/30 12:35:06;;;;;;;3.40;2.50;;;29.00;31.90;;;;;;4979686;28;20514;-65
2022/07/30 12:37:35;;;;;;;3.83;2.40;;;29.30;31.10;;;;;;4978551;28;20927;-64
2022/07/30 12:40:07;;;;;;;4.00;2.55;;;29.20;34.90;;;;;;4971744;28;20434;-64
2022/07/30 12:42:34;;;;;;;3.40;2.63;;;28.80;34.20;;;;;;4980944;28;20553;-64
2022/07/30 12:45:00;;;;;;;3.20;2.40;;;28.90;33.30;;;;;;4985452;28;20434;-64
2022/07/30 12:47:29;;;;;;;2.53;2.33;;;28.90;32.70;;;;;;4970524;28;20436;-65
2022/07/30 12:49:58;;;;;;;3.50;2.50;;;28.70;30.80;;;;;;4976903;28;20799;-64